createdAt,value
2023-02-16T15:45:33.141Z,97352.54
2023-02-16T15:48:21.085Z,97355.91
2023-02-16T15:50:50.768Z,97355.91
2023-02-16T15:53:25.023Z,97357.30
2023-02-16T15:55:53.331Z,97355.93
2023-02-16T15:58:22.051Z,97352.66
2023-02-16T16:00:50.552Z,97349.80
2023-02-16T16:03:18.830Z,97345.67
2023-02-16T16:06:06.757Z,97342.33
2023-02-16T16:08:35.864Z,97336.73
2023-02-16T16:11:04.646Z,97335.48
2023-02-16T16:13:34.285Z,97336.40
2023-02-16T16:16:04.827Z,97338.89
2023-02-16T16:18:39.441Z,97337.11
2023-02-16T16:21:34.303Z,97331.58
2023-02-16T16:24:08.098Z,97337.13
2023-02-16T16:26:53.173Z,97333.98
2023-02-16T16:29:44.328Z,97334.52
2023-02-16T16:32:25.098Z,97334.91
2023-02-16T16:34:53.352Z,97343.89
2023-02-16T16:37:28.921Z,97344.05
2023-02-16T16:40:01.639Z,97344.52
2023-02-16T16:42:31.223Z,97348.56
2023-02-16T16:45:07.365Z,97342.99
2023-02-16T16:47:40.439Z,97342.08
2023-02-16T16:50:11.896Z,97338.46
2023-02-16T16:52:44.877Z,97335.03
2023-02-16T16:55:19.193Z,97329.83
2023-02-16T16:57:58.334Z,97329.53
2023-02-16T17:00:31.108Z,97327.31
2023-02-16T17:02:59.197Z,97338.73
2023-02-16T17:05:27.985Z,97341.20
2023-02-16T17:07:56.145Z,97342.00
2023-02-16T17:10:24.629Z,97340.59
2023-02-16T17:12:56.793Z,97337.90
2023-02-16T17:15:29.669Z,97336.29
2023-02-16T17:17:58.905Z,97335.98
2023-02-16T17:20:27.240Z,97333.04
2023-02-16T17:22:55.330Z,97334.25
2023-02-16T17:25:23.600Z,97331.75
2023-02-16T17:27:51.522Z,97325.30
2023-02-16T17:30:19.650Z,97324.68
2023-02-16T17:32:47.814Z,97323.61
2023-02-16T17:35:15.885Z,97322.13
2023-02-16T17:37:43.952Z,97317.96
2023-02-16T17:40:17.376Z,97312.77
2023-02-16T17:42:47.297Z,97308.36
2023-02-16T17:45:18.226Z,97308.01
2023-02-16T17:47:49.876Z,97307.38
2023-02-16T17:50:19.811Z,97306.55
2023-02-16T17:52:47.888Z,97306.59
2023-02-16T17:55:16.330Z,97303.36
2023-02-16T17:57:44.402Z,97308.05
2023-02-16T18:00:17.858Z,97308.55
2023-02-16T18:02:46.796Z,97310.05
2023-02-16T18:05:15.375Z,97313.92
2023-02-16T18:07:43.561Z,97315.60
2023-02-16T18:10:18.655Z,97316.71
2023-02-16T18:12:46.661Z,97318.45
2023-02-16T18:15:14.735Z,97316.41
2023-02-16T18:17:42.701Z,97318.06
2023-02-16T18:20:16.156Z,97316.80
2023-02-16T18:22:44.488Z,97308.22
2023-02-16T18:25:12.651Z,97308.50
2023-02-16T18:27:40.827Z,97304.26
2023-02-16T18:30:10.376Z,97304.42
2023-02-16T18:32:38.703Z,97307.43
2023-02-16T18:35:06.880Z,97307.54
2023-02-16T18:37:35.706Z,97312.46
2023-02-16T18:40:05.381Z,97314.36
2023-02-16T18:42:33.460Z,97321.86
2023-02-16T18:45:01.515Z,97322.91
2023-02-16T18:47:29.811Z,97320.84
2023-02-16T18:49:57.885Z,97326.67
2023-02-16T18:52:26.262Z,97332.91
2023-02-16T18:54:54.295Z,97329.20
2023-02-16T18:57:22.924Z,97333.96
2023-02-16T18:59:51.099Z,97331.71
2023-02-16T19:02:19.376Z,97326.84
2023-02-16T19:04:47.965Z,97329.55
2023-02-16T19:07:16.131Z,97334.46
2023-02-16T19:09:44.198Z,97337.55
2023-02-16T19:12:12.072Z,97338.13
2023-02-16T19:14:40.447Z,97339.63
2023-02-16T19:17:08.624Z,97340.60
2023-02-16T19:19:37.297Z,97341.25
2023-02-16T19:22:05.483Z,97341.78
2023-02-16T19:24:36.076Z,97341.08
2023-02-16T19:27:04.316Z,97341.73
2023-02-16T19:29:32.355Z,97340.31
2023-02-16T19:32:00.549Z,97337.78
2023-02-16T19:34:28.706Z,97340.08
2023-02-16T19:36:56.880Z,97333.71
2023-02-16T19:39:25.045Z,97334.41
2023-02-16T19:41:53.225Z,97331.59
2023-02-16T19:44:21.189Z,97327.96
2023-02-16T19:46:49.161Z,97323.23
2023-02-16T19:49:17.224Z,97326.43
2023-02-16T19:51:47.759Z,97325.08
2023-02-16T19:54:16.251Z,97324.93
2023-02-16T19:56:44.317Z,97325.82
2023-02-16T19:59:12.512Z,97322.39
2023-02-16T20:01:40.492Z,97320.20
2023-02-16T20:04:08.936Z,97324.20
2023-02-16T20:06:39.308Z,97322.50
2023-02-16T20:09:11.226Z,97322.59
2023-02-16T20:11:40.431Z,97320.97
2023-02-16T20:14:08.787Z,97315.46
2023-02-16T20:16:36.852Z,97311.94
2023-02-16T20:19:04.941Z,97311.48
2023-02-16T20:21:33.847Z,97309.99
2023-02-16T20:24:04.753Z,97313.24
2023-02-16T20:26:42.170Z,97305.34
2023-02-16T20:29:13.385Z,97310.60
2023-02-16T20:31:47.004Z,97307.77
2023-02-16T20:34:15.524Z,97298.89
2023-02-16T20:36:43.534Z,97300.17
2023-02-16T20:39:11.613Z,97304.11
2023-02-16T20:41:40.955Z,97305.70
2023-02-16T20:44:09.295Z,97303.37
2023-02-16T20:46:38.796Z,97305.05
2023-02-16T20:49:07.660Z,97304.84
2023-02-16T20:51:36.977Z,97304.30
2023-02-16T20:54:05.699Z,97303.41
2023-02-16T20:56:33.993Z,97302.73
2023-02-16T20:59:02.159Z,97299.91
2023-02-16T21:01:43.770Z,97304.08
2023-02-16T21:04:14.071Z,97305.88
2023-02-16T21:06:42.008Z,97300.54
2023-02-16T21:09:11.413Z,97297.88
2023-02-16T21:11:40.341Z,97296.00
2023-02-16T21:14:11.782Z,97294.14
2023-02-16T21:16:41.183Z,97296.44
2023-02-16T21:19:22.128Z,97295.26
2023-02-16T21:21:51.678Z,97294.57
2023-02-16T21:24:20.147Z,97293.83
2023-02-16T21:26:48.339Z,97289.39
2023-02-16T21:29:16.697Z,97293.47
2023-02-16T21:31:44.923Z,97298.40
2023-02-16T21:34:13.147Z,97296.13
2023-02-16T21:36:41.227Z,97294.30
2023-02-16T21:39:09.216Z,97293.46
2023-02-16T21:41:37.472Z,97293.06
2023-02-16T21:44:11.022Z,97290.73
2023-02-16T21:46:40.784Z,97285.02
2023-02-16T21:49:12.915Z,97280.45
2023-02-16T21:51:43.389Z,97274.12
2023-02-16T21:54:14.853Z,97276.45
2023-02-16T21:56:48.269Z,97278.08
2023-02-16T21:59:18.742Z,97273.59
2023-02-16T22:01:51.368Z,97275.29
2023-02-16T22:04:22.425Z,97276.30
2023-02-16T22:06:51.235Z,97277.27
2023-02-16T22:09:22.587Z,97284.02
2023-02-16T22:11:51.735Z,97283.35
2023-02-16T22:14:20.228Z,97284.81
2023-02-16T22:16:48.849Z,97283.02
2023-02-16T22:19:18.526Z,97284.06
2023-02-16T22:21:48.613Z,97292.54
2023-02-16T22:24:18.241Z,97295.48
2023-02-16T22:26:49.572Z,97296.49
2023-02-16T22:29:18.392Z,97292.58
2023-02-16T22:31:48.566Z,97295.23
2023-02-16T22:34:19.584Z,97298.77
2023-02-16T22:36:48.492Z,97302.77
2023-02-16T22:39:18.782Z,97300.48
2023-02-16T22:41:49.223Z,97299.40
2023-02-16T22:44:17.626Z,97296.81
2023-02-16T22:46:45.594Z,97298.09
2023-02-16T22:49:13.666Z,97302.21
2023-02-16T22:51:42.046Z,97304.52
2023-02-16T22:54:14.435Z,97303.48
2023-02-16T22:56:42.811Z,97306.94
2023-02-16T22:59:12.068Z,97308.85
2023-02-16T23:01:40.813Z,97310.05
2023-02-16T23:04:14.051Z,97306.34
2023-02-16T23:06:47.127Z,97304.42
2023-02-16T23:09:18.740Z,97304.52
2023-02-16T23:11:48.039Z,97305.34
2023-02-16T23:14:17.739Z,97306.98
2023-02-16T23:16:48.448Z,97306.21
2023-02-16T23:19:20.300Z,97302.05
2023-02-16T23:21:49.099Z,97300.45
2023-02-16T23:24:20.786Z,97299.13
2023-02-16T23:26:49.436Z,97298.56
2023-02-16T23:29:17.937Z,97299.34
2023-02-16T23:31:47.227Z,97290.82
2023-02-16T23:34:16.638Z,97294.67
2023-02-16T23:36:45.050Z,97292.84
2023-02-16T23:39:15.882Z,97287.94
2023-02-16T23:41:44.060Z,97285.05
2023-02-16T23:44:14.313Z,97283.30
2023-02-16T23:46:42.438Z,97289.48
2023-02-16T23:49:10.603Z,97289.23
2023-02-16T23:51:38.784Z,97291.91
2023-02-16T23:54:09.301Z,97289.30
2023-02-16T23:56:37.390Z,97288.09
2023-02-16T23:59:05.256Z,97286.60
